Terminal Aerodrome Forecast
Issued by NWS

Home | Current Version | Previous Version | Text Only | Print | Product List | Glossary On
Versions: 1 2 3 4 5 6 7 8 9 10
000
FTUS46 KPDT 281700
TAFYKM
TAF
KYKM 281720Z 2818/2918 VRB04KT P6SM BKN070
     FM282100 33005KT P6SM BKN070
     FM290600 29005KT 5SM -SHSN BR SCT025 BKN040 OVC060
     FM291500 34013G20KT P6SM SCT030 BKN050=

USA.gov is the U.S. government's official web portal to all federal, state and local government web resources and services.